Terminal Aerodrome Forecast
Issued by NWS

Home | Current Version | Previous Version | Text Only | Print | Product List | Glossary On
Versions: 1 2 3 4 5 6 7 8 9 10 11 12 13 14 15 16 17 18 19 20 21 22 23 24 25 26 27 28
000
FTAK31 PAFC 212345
TAFAIL
TAF
PAIL 212345Z 2200/2224 27010KT 2SM -SN BKN015 OVC030
      TEMPO 2200/2204 1SM -SN
     FM220400 27012KT 2SM -SN BKN015 OVC030
      TEMPO 2204/2208 1SM -SN
     FM221200 27006KT 6SM -SN FEW015 OVC025
     FM222200 27008KT P6SM SCT025 BKN050=

USA.gov is the U.S. government's official web portal to all federal, state and local government web resources and services.